sensor_id;sensor_type;location;lat;lon;timestamp;P1;durP1;ratioP1;P2;durP2;ratioP2
28343;SDS011;15597;50.914;6.638;2023-05-31T00:02:12;5.70;;;3.55;;
28343;SDS011;15597;50.914;6.638;2023-05-31T00:04:38;8.57;;;3.72;;
28343;SDS011;15597;50.914;6.638;2023-05-31T00:07:07;6.28;;;3.40;;
28343;SDS011;15597;50.914;6.638;2023-05-31T00:09:33;5.55;;;2.88;;
28343;SDS011;15597;50.914;6.638;2023-05-31T00:11:58;6.88;;;3.55;;
28343;SDS011;15597;50.914;6.638;2023-05-31T00:14:25;6.20;;;3.47;;
28343;SDS011;15597;50.914;6.638;2023-05-31T00:16:51;6.90;;;3.80;;
28343;SDS011;15597;50.914;6.638;2023-05-31T00:19:17;5.03;;;2.58;;
28343;SDS011;15597;50.914;6.638;2023-05-31T00:21:43;6.40;;;3.58;;
28343;SDS011;15597;50.914;6.638;2023-05-31T00:24:12;5.90;;;2.80;;
28343;SDS011;15597;50.914;6.638;2023-05-31T00:26:38;5.55;;;2.80;;
28343;SDS011;15597;50.914;6.638;2023-05-31T00:29:04;5.93;;;3.80;;
28343;SDS011;15597;50.914;6.638;2023-05-31T00:31:30;9.07;;;4.22;;
28343;SDS011;15597;50.914;6.638;2023-05-31T00:33:56;6.05;;;3.10;;
28343;SDS011;15597;50.914;6.638;2023-05-31T00:36:22;5.70;;;2.70;;
28343;SDS011;15597;50.914;6.638;2023-05-31T00:38:48;6.05;;;3.28;;
28343;SDS011;15597;50.914;6.638;2023-05-31T00:41:14;6.07;;;2.95;;
28343;SDS011;15597;50.914;6.638;2023-05-31T00:43:40;8.93;;;4.50;;
28343;SDS011;15597;50.914;6.638;2023-05-31T00:46:06;6.32;;;3.20;;
28343;SDS011;15597;50.914;6.638;2023-05-31T00:48:36;5.18;;;2.70;;
28343;SDS011;15597;50.914;6.638;2023-05-31T00:51:04;7.50;;;3.55;;
28343;SDS011;15597;50.914;6.638;2023-05-31T00:53:30;6.50;;;3.42;;
28343;SDS011;15597;50.914;6.638;2023-05-31T00:55:56;6.47;;;3.10;;
28343;SDS011;15597;50.914;6.638;2023-05-31T00:58:24;8.55;;;3.85;;
28343;SDS011;15597;50.914;6.638;2023-05-31T01:00:51;6.35;;;2.85;;
28343;SDS011;15597;50.914;6.638;2023-05-31T01:03:17;5.18;;;2.83;;
28343;SDS011;15597;50.914;6.638;2023-05-31T01:05:44;5.50;;;2.83;;
28343;SDS011;15597;50.914;6.638;2023-05-31T01:08:10;7.07;;;3.95;;
28343;SDS011;15597;50.914;6.638;2023-05-31T01:10:36;7.28;;;3.25;;
28343;SDS011;15597;50.914;6.638;2023-05-31T01:13:10;6.03;;;3.28;;
28343;SDS011;15597;50.914;6.638;2023-05-31T01:15:45;7.38;;;3.75;;
28343;SDS011;15597;50.914;6.638;2023-05-31T01:18:20;7.85;;;3.55;;
28343;SDS011;15597;50.914;6.638;2023-05-31T01:20:58;7.30;;;2.92;;
28343;SDS011;15597;50.914;6.638;2023-05-31T01:29:04;9.43;;;4.53;;
28343;SDS011;15597;50.914;6.638;2023-05-31T01:31:34;5.57;;;2.78;;
28343;SDS011;15597;50.914;6.638;2023-05-31T01:34:03;6.65;;;3.63;;
28343;SDS011;15597;50.914;6.638;2023-05-31T01:36:29;7.10;;;3.63;;
28343;SDS011;15597;50.914;6.638;2023-05-31T01:38:56;7.72;;;4.18;;
28343;SDS011;15597;50.914;6.638;2023-05-31T01:41:23;10.10;;;5.40;;
28343;SDS011;15597;50.914;6.638;2023-05-31T01:43:51;9.60;;;4.40;;
28343;SDS011;15597;50.914;6.638;2023-05-31T01:46:18;8.05;;;4.13;;
28343;SDS011;15597;50.914;6.638;2023-05-31T01:48:46;6.10;;;3.03;;
28343;SDS011;15597;50.914;6.638;2023-05-31T01:51:13;8.75;;;4.72;;
28343;SDS011;15597;50.914;6.638;2023-05-31T01:53:40;10.77;;;5.68;;
28343;SDS011;15597;50.914;6.638;2023-05-31T01:56:07;9.85;;;4.95;;
28343;SDS011;15597;50.914;6.638;2023-05-31T01:58:38;6.68;;;3.58;;
28343;SDS011;15597;50.914;6.638;2023-05-31T02:01:14;10.50;;;5.32;;
28343;SDS011;15597;50.914;6.638;2023-05-31T02:03:42;8.95;;;4.38;;
28343;SDS011;15597;50.914;6.638;2023-05-31T02:06:09;6.57;;;3.80;;
28343;SDS011;15597;50.914;6.638;2023-05-31T02:08:39;10.65;;;5.55;;
28343;SDS011;15597;50.914;6.638;2023-05-31T02:11:06;7.22;;;4.15;;
28343;SDS011;15597;50.914;6.638;2023-05-31T02:13:32;8.80;;;4.70;;
28343;SDS011;15597;50.914;6.638;2023-05-31T02:15:58;8.52;;;4.75;;
28343;SDS011;15597;50.914;6.638;2023-05-31T02:18:24;8.52;;;4.18;;
28343;SDS011;15597;50.914;6.638;2023-05-31T02:20:53;10.57;;;5.60;;
28343;SDS011;15597;50.914;6.638;2023-05-31T02:23:19;6.22;;;3.30;;
28343;SDS011;15597;50.914;6.638;2023-05-31T02:25:46;8.68;;;4.40;;
28343;SDS011;15597;50.914;6.638;2023-05-31T02:28:12;9.52;;;4.70;;
28343;SDS011;15597;50.914;6.638;2023-05-31T02:30:38;9.75;;;4.97;;
28343;SDS011;15597;50.914;6.638;2023-05-31T02:33:07;6.22;;;3.33;;
28343;SDS011;15597;50.914;6.638;2023-05-31T02:35:33;13.60;;;5.60;;
28343;SDS011;15597;50.914;6.638;2023-05-31T02:37:59;7.07;;;3.83;;
28343;SDS011;15597;50.914;6.638;2023-05-31T02:40:25;6.65;;;3.55;;
28343;SDS011;15597;50.914;6.638;2023-05-31T02:42:51;8.82;;;5.22;;
28343;SDS011;15597;50.914;6.638;2023-05-31T02:45:16;5.97;;;3.22;;
28343;SDS011;15597;50.914;6.638;2023-05-31T02:47:42;9.65;;;5.30;;
28343;SDS011;15597;50.914;6.638;2023-05-31T02:50:09;11.15;;;5.47;;
28343;SDS011;15597;50.914;6.638;2023-05-31T02:52:44;11.75;;;5.45;;
28343;SDS011;15597;50.914;6.638;2023-05-31T02:55:26;7.60;;;3.75;;
28343;SDS011;15597;50.914;6.638;2023-05-31T02:58:12;7.68;;;3.67;;
28343;SDS011;15597;50.914;6.638;2023-05-31T03:00:45;8.20;;;3.88;;
28343;SDS011;15597;50.914;6.638;2023-05-31T03:03:11;12.82;;;5.68;;
28343;SDS011;15597;50.914;6.638;2023-05-31T03:05:53;10.70;;;4.90;;
28343;SDS011;15597;50.914;6.638;2023-05-31T03:08:19;7.43;;;3.65;;
28343;SDS011;15597;50.914;6.638;2023-05-31T03:10:46;10.43;;;4.43;;
28343;SDS011;15597;50.914;6.638;2023-05-31T03:13:14;6.13;;;3.80;;
28343;SDS011;15597;50.914;6.638;2023-05-31T03:15:40;8.40;;;4.20;;
28343;SDS011;15597;50.914;6.638;2023-05-31T03:18:06;10.75;;;4.80;;
28343;SDS011;15597;50.914;6.638;2023-05-31T03:20:36;9.70;;;4.45;;
28343;SDS011;15597;50.914;6.638;2023-05-31T03:23:03;7.03;;;3.47;;
28343;SDS011;15597;50.914;6.638;2023-05-31T03:25:28;11.15;;;5.25;;
28343;SDS011;15597;50.914;6.638;2023-05-31T03:27:55;8.85;;;4.40;;
28343;SDS011;15597;50.914;6.638;2023-05-31T03:30:22;11.07;;;5.60;;
28343;SDS011;15597;50.914;6.638;2023-05-31T03:32:54;11.63;;;5.47;;
28343;SDS011;15597;50.914;6.638;2023-05-31T03:35:19;10.25;;;5.20;;
28343;SDS011;15597;50.914;6.638;2023-05-31T03:37:45;10.82;;;5.63;;
28343;SDS011;15597;50.914;6.638;2023-05-31T03:40:12;8.32;;;4.30;;
28343;SDS011;15597;50.914;6.638;2023-05-31T03:42:37;10.77;;;4.85;;
28343;SDS011;15597;50.914;6.638;2023-05-31T03:45:05;9.85;;;4.13;;
28343;SDS011;15597;50.914;6.638;2023-05-31T03:47:32;10.23;;;5.15;;
28343;SDS011;15597;50.914;6.638;2023-05-31T03:49:58;7.93;;;4.10;;
28343;SDS011;15597;50.914;6.638;2023-05-31T03:52:24;11.07;;;5.28;;
28343;SDS011;15597;50.914;6.638;2023-05-31T03:54:50;11.75;;;5.82;;
28343;SDS011;15597;50.914;6.638;2023-05-31T03:57:15;10.20;;;5.28;;
28343;SDS011;15597;50.914;6.638;2023-05-31T03:59:41;7.45;;;3.38;;
28343;SDS011;15597;50.914;6.638;2023-05-31T04:02:06;5.82;;;3.13;;
28343;SDS011;15597;50.914;6.638;2023-05-31T04:04:32;5.75;;;3.35;;
28343;SDS011;15597;50.914;6.638;2023-05-31T04:06:57;7.38;;;3.75;;
28343;SDS011;15597;50.914;6.638;2023-05-31T04:09:23;9.13;;;5.03;;
28343;SDS011;15597;50.914;6.638;2023-05-31T04:11:49;7.78;;;3.60;;
28343;SDS011;15597;50.914;6.638;2023-05-31T04:14:15;6.28;;;3.30;;
28343;SDS011;15597;50.914;6.638;2023-05-31T04:16:41;9.52;;;5.15;;
28343;SDS011;15597;50.914;6.638;2023-05-31T04:19:07;8.90;;;4.18;;
28343;SDS011;15597;50.914;6.638;2023-05-31T04:21:33;7.30;;;3.58;;
28343;SDS011;15597;50.914;6.638;2023-05-31T04:23:59;8.90;;;4.50;;
28343;SDS011;15597;50.914;6.638;2023-05-31T04:26:25;6.32;;;3.22;;
28343;SDS011;15597;50.914;6.638;2023-05-31T04:28:52;6.78;;;3.72;;
28343;SDS011;15597;50.914;6.638;2023-05-31T04:31:20;6.90;;;3.70;;
28343;SDS011;15597;50.914;6.638;2023-05-31T04:33:50;9.90;;;4.47;;
28343;SDS011;15597;50.914;6.638;2023-05-31T04:36:19;9.82;;;4.90;;
28343;SDS011;15597;50.914;6.638;2023-05-31T04:38:45;8.27;;;4.00;;
28343;SDS011;15597;50.914;6.638;2023-05-31T04:41:17;8.18;;;3.83;;
28343;SDS011;15597;50.914;6.638;2023-05-31T04:43:42;6.38;;;3.17;;
28343;SDS011;15597;50.914;6.638;2023-05-31T04:46:08;7.70;;;3.97;;
28343;SDS011;15597;50.914;6.638;2023-05-31T04:48:35;8.18;;;3.92;;
28343;SDS011;15597;50.914;6.638;2023-05-31T04:51:02;6.93;;;4.03;;
28343;SDS011;15597;50.914;6.638;2023-05-31T04:53:29;6.70;;;3.17;;
28343;SDS011;15597;50.914;6.638;2023-05-31T04:55:55;9.15;;;4.05;;
28343;SDS011;15597;50.914;6.638;2023-05-31T04:58:21;5.97;;;3.15;;
28343;SDS011;15597;50.914;6.638;2023-05-31T05:00:47;7.53;;;3.97;;
28343;SDS011;15597;50.914;6.638;2023-05-31T05:03:33;6.18;;;3.10;;
28343;SDS011;15597;50.914;6.638;2023-05-31T05:06:11;6.18;;;3.33;;
28343;SDS011;15597;50.914;6.638;2023-05-31T05:08:39;7.55;;;4.22;;
28343;SDS011;15597;50.914;6.638;2023-05-31T05:11:06;5.97;;;3.15;;
28343;SDS011;15597;50.914;6.638;2023-05-31T05:13:32;6.90;;;3.35;;
28343;SDS011;15597;50.914;6.638;2023-05-31T05:15:58;5.97;;;3.10;;
28343;SDS011;15597;50.914;6.638;2023-05-31T05:18:24;6.32;;;3.30;;
28343;SDS011;15597;50.914;6.638;2023-05-31T05:20:51;8.45;;;3.88;;
28343;SDS011;15597;50.914;6.638;2023-05-31T05:23:23;7.00;;;3.45;;
28343;SDS011;15597;50.914;6.638;2023-05-31T05:25:49;6.20;;;3.20;;
28343;SDS011;15597;50.914;6.638;2023-05-31T05:28:15;5.85;;;3.30;;
28343;SDS011;15597;50.914;6.638;2023-05-31T05:30:41;6.40;;;2.90;;
28343;SDS011;15597;50.914;6.638;2023-05-31T05:33:07;6.70;;;3.25;;
28343;SDS011;15597;50.914;6.638;2023-05-31T05:35:33;7.20;;;3.53;;
28343;SDS011;15597;50.914;6.638;2023-05-31T05:37:58;8.13;;;3.45;;
28343;SDS011;15597;50.914;6.638;2023-05-31T05:40:25;5.47;;;3.03;;
28343;SDS011;15597;50.914;6.638;2023-05-31T05:42:53;12.23;;;5.82;;
28343;SDS011;15597;50.914;6.638;2023-05-31T05:45:19;13.32;;;5.78;;
28343;SDS011;15597;50.914;6.638;2023-05-31T05:47:45;14.77;;;5.57;;
28343;SDS011;15597;50.914;6.638;2023-05-31T05:50:15;11.90;;;5.65;;
28343;SDS011;15597;50.914;6.638;2023-05-31T05:52:41;10.25;;;5.10;;
28343;SDS011;15597;50.914;6.638;2023-05-31T05:55:07;12.10;;;5.70;;
28343;SDS011;15597;50.914;6.638;2023-05-31T05:57:33;12.40;;;5.68;;
28343;SDS011;15597;50.914;6.638;2023-05-31T06:00:15;6.38;;;3.22;;
28343;SDS011;15597;50.914;6.638;2023-05-31T06:02:45;6.53;;;3.60;;
28343;SDS011;15597;50.914;6.638;2023-05-31T06:05:10;9.18;;;4.25;;
28343;SDS011;15597;50.914;6.638;2023-05-31T06:07:37;7.68;;;3.25;;
28343;SDS011;15597;50.914;6.638;2023-05-31T06:10:03;11.82;;;5.43;;
28343;SDS011;15597;50.914;6.638;2023-05-31T06:12:29;6.90;;;3.50;;
28343;SDS011;15597;50.914;6.638;2023-05-31T06:14:59;9.75;;;5.07;;
28343;SDS011;15597;50.914;6.638;2023-05-31T06:17:24;12.02;;;5.28;;
28343;SDS011;15597;50.914;6.638;2023-05-31T06:19:50;7.03;;;3.33;;
28343;SDS011;15597;50.914;6.638;2023-05-31T06:22:16;9.43;;;4.40;;
28343;SDS011;15597;50.914;6.638;2023-05-31T06:24:41;5.43;;;2.95;;
28343;SDS011;15597;50.914;6.638;2023-05-31T06:27:08;6.18;;;3.45;;
28343;SDS011;15597;50.914;6.638;2023-05-31T06:29:38;6.78;;;3.55;;
28343;SDS011;15597;50.914;6.638;2023-05-31T06:32:15;8.13;;;4.43;;
28343;SDS011;15597;50.914;6.638;2023-05-31T06:34:44;6.97;;;3.72;;
28343;SDS011;15597;50.914;6.638;2023-05-31T06:37:10;8.88;;;3.85;;
28343;SDS011;15597;50.914;6.638;2023-05-31T06:39:36;10.77;;;5.57;;
28343;SDS011;15597;50.914;6.638;2023-05-31T06:42:02;9.98;;;4.88;;
28343;SDS011;15597;50.914;6.638;2023-05-31T06:44:53;8.35;;;3.67;;
28343;SDS011;15597;50.914;6.638;2023-05-31T06:47:30;9.25;;;3.97;;
28343;SDS011;15597;50.914;6.638;2023-05-31T06:50:14;9.88;;;4.05;;
28343;SDS011;15597;50.914;6.638;2023-05-31T06:53:07;6.53;;;3.60;;
28343;SDS011;15597;50.914;6.638;2023-05-31T06:56:00;5.88;;;3.00;;
28343;SDS011;15597;50.914;6.638;2023-05-31T06:58:30;6.40;;;3.50;;
28343;SDS011;15597;50.914;6.638;2023-05-31T07:00:57;5.15;;;2.83;;
28343;SDS011;15597;50.914;6.638;2023-05-31T07:03:22;8.82;;;4.43;;
28343;SDS011;15597;50.914;6.638;2023-05-31T07:05:48;10.80;;;4.95;;
28343;SDS011;15597;50.914;6.638;2023-05-31T07:08:14;8.13;;;4.03;;
28343;SDS011;15597;50.914;6.638;2023-05-31T07:11:08;7.00;;;3.70;;
28343;SDS011;15597;50.914;6.638;2023-05-31T07:13:34;8.50;;;3.90;;
28343;SDS011;15597;50.914;6.638;2023-05-31T07:15:59;7.32;;;4.10;;
28343;SDS011;15597;50.914;6.638;2023-05-31T07:18:25;9.23;;;4.00;;
28343;SDS011;15597;50.914;6.638;2023-05-31T07:20:54;8.35;;;3.40;;
28343;SDS011;15597;50.914;6.638;2023-05-31T07:23:22;6.30;;;3.10;;
28343;SDS011;15597;50.914;6.638;2023-05-31T07:25:49;6.97;;;3.10;;
28343;SDS011;15597;50.914;6.638;2023-05-31T07:28:15;8.85;;;3.88;;
28343;SDS011;15597;50.914;6.638;2023-05-31T07:30:40;5.03;;;2.88;;
28343;SDS011;15597;50.914;6.638;2023-05-31T07:33:06;7.22;;;4.10;;
28343;SDS011;15597;50.914;6.638;2023-05-31T07:35:31;8.82;;;4.00;;
28343;SDS011;15597;50.914;6.638;2023-05-31T07:37:57;6.68;;;3.30;;
28343;SDS011;15597;50.914;6.638;2023-05-31T07:40:22;7.50;;;3.00;;
28343;SDS011;15597;50.914;6.638;2023-05-31T07:42:48;5.88;;;2.65;;
28343;SDS011;15597;50.914;6.638;2023-05-31T07:45:13;8.32;;;3.50;;
28343;SDS011;15597;50.914;6.638;2023-05-31T07:47:39;7.82;;;3.33;;
28343;SDS011;15597;50.914;6.638;2023-05-31T07:50:05;5.63;;;3.10;;
28343;SDS011;15597;50.914;6.638;2023-05-31T07:52:30;8.27;;;3.33;;
28343;SDS011;15597;50.914;6.638;2023-05-31T07:54:56;7.10;;;3.40;;
28343;SDS011;15597;50.914;6.638;2023-05-31T07:57:21;6.63;;;3.03;;
28343;SDS011;15597;50.914;6.638;2023-05-31T07:59:49;9.60;;;3.42;;
28343;SDS011;15597;50.914;6.638;2023-05-31T08:02:16;10.13;;;3.20;;
28343;SDS011;15597;50.914;6.638;2023-05-31T08:04:42;5.80;;;2.97;;
28343;SDS011;15597;50.914;6.638;2023-05-31T08:07:08;12.07;;;3.60;;
28343;SDS011;15597;50.914;6.638;2023-05-31T08:09:34;9.27;;;3.28;;
28343;SDS011;15597;50.914;6.638;2023-05-31T08:12:00;6.03;;;3.10;;
28343;SDS011;15597;50.914;6.638;2023-05-31T08:14:28;7.93;;;3.10;;
28343;SDS011;15597;50.914;6.638;2023-05-31T08:16:54;7.30;;;2.88;;
28343;SDS011;15597;50.914;6.638;2023-05-31T08:19:19;9.85;;;3.17;;
28343;SDS011;15597;50.914;6.638;2023-05-31T08:21:45;7.00;;;2.80;;
28343;SDS011;15597;50.914;6.638;2023-05-31T08:24:12;6.60;;;3.20;;
28343;SDS011;15597;50.914;6.638;2023-05-31T08:26:37;8.48;;;3.10;;
28343;SDS011;15597;50.914;6.638;2023-05-31T08:29:03;5.82;;;2.90;;
28343;SDS011;15597;50.914;6.638;2023-05-31T08:31:28;7.53;;;3.30;;
28343;SDS011;15597;50.914;6.638;2023-05-31T08:33:55;7.30;;;2.70;;
28343;SDS011;15597;50.914;6.638;2023-05-31T08:36:22;6.20;;;2.70;;
28343;SDS011;15597;50.914;6.638;2023-05-31T08:38:48;6.57;;;2.80;;
28343;SDS011;15597;50.914;6.638;2023-05-31T08:41:14;5.55;;;2.70;;
28343;SDS011;15597;50.914;6.638;2023-05-31T08:43:40;5.95;;;2.75;;
28343;SDS011;15597;50.914;6.638;2023-05-31T08:46:05;7.22;;;3.08;;
28343;SDS011;15597;50.914;6.638;2023-05-31T08:51:15;6.03;;;2.90;;
28343;SDS011;15597;50.914;6.638;2023-05-31T08:53:41;5.65;;;2.90;;
28343;SDS011;15597;50.914;6.638;2023-05-31T08:56:07;5.53;;;2.60;;
28343;SDS011;15597;50.914;6.638;2023-05-31T08:58:34;7.25;;;3.17;;
28343;SDS011;15597;50.914;6.638;2023-05-31T09:01:02;7.38;;;3.42;;
28343;SDS011;15597;50.914;6.638;2023-05-31T09:03:28;7.68;;;3.05;;
28343;SDS011;15597;50.914;6.638;2023-05-31T09:05:54;4.72;;;2.30;;
28343;SDS011;15597;50.914;6.638;2023-05-31T09:08:23;5.72;;;2.65;;
28343;SDS011;15597;50.914;6.638;2023-05-31T09:10:50;4.80;;;2.50;;
28343;SDS011;15597;50.914;6.638;2023-05-31T09:13:16;7.38;;;2.70;;
28343;SDS011;15597;50.914;6.638;2023-05-31T09:15:41;4.47;;;2.45;;
28343;SDS011;15597;50.914;6.638;2023-05-31T09:18:16;5.95;;;2.78;;
28343;SDS011;15597;50.914;6.638;2023-05-31T09:20:48;5.15;;;2.45;;
28343;SDS011;15597;50.914;6.638;2023-05-31T09:23:18;5.28;;;2.40;;
28343;SDS011;15597;50.914;6.638;2023-05-31T09:25:47;5.25;;;2.65;;
28343;SDS011;15597;50.914;6.638;2023-05-31T09:28:21;4.10;;;2.35;;
28343;SDS011;15597;50.914;6.638;2023-05-31T09:33:41;5.68;;;2.60;;
28343;SDS011;15597;50.914;6.638;2023-05-31T09:36:08;5.93;;;2.40;;
28343;SDS011;15597;50.914;6.638;2023-05-31T09:38:35;7.07;;;2.20;;
28343;SDS011;15597;50.914;6.638;2023-05-31T09:41:14;4.65;;;2.20;;
28343;SDS011;15597;50.914;6.638;2023-05-31T09:43:41;4.65;;;2.50;;
28343;SDS011;15597;50.914;6.638;2023-05-31T09:46:12;5.25;;;2.80;;
28343;SDS011;15597;50.914;6.638;2023-05-31T09:48:40;7.70;;;2.45;;
28343;SDS011;15597;50.914;6.638;2023-05-31T09:51:07;5.30;;;2.08;;
28343;SDS011;15597;50.914;6.638;2023-05-31T09:53:38;7.00;;;2.53;;
28343;SDS011;15597;50.914;6.638;2023-05-31T09:56:09;5.75;;;2.38;;
28343;SDS011;15597;50.914;6.638;2023-05-31T09:58:47;6.88;;;2.45;;
28343;SDS011;15597;50.914;6.638;2023-05-31T10:01:16;4.03;;;2.17;;
28343;SDS011;15597;50.914;6.638;2023-05-31T10:03:43;6.35;;;2.28;;
28343;SDS011;15597;50.914;6.638;2023-05-31T10:06:09;8.27;;;2.58;;
28343;SDS011;15597;50.914;6.638;2023-05-31T10:08:37;4.43;;;2.47;;
28343;SDS011;15597;50.914;6.638;2023-05-31T10:11:02;4.28;;;2.30;;
28343;SDS011;15597;50.914;6.638;2023-05-31T10:13:29;6.28;;;2.28;;
28343;SDS011;15597;50.914;6.638;2023-05-31T10:16:05;5.35;;;2.30;;
28343;SDS011;15597;50.914;6.638;2023-05-31T10:18:33;6.18;;;1.90;;
28343;SDS011;15597;50.914;6.638;2023-05-31T10:21:06;7.22;;;2.15;;
28343;SDS011;15597;50.914;6.638;2023-05-31T10:23:36;6.55;;;2.17;;
28343;SDS011;15597;50.914;6.638;2023-05-31T10:28:44;5.40;;;2.20;;
28343;SDS011;15597;50.914;6.638;2023-05-31T10:33:39;5.80;;;1.92;;
28343;SDS011;15597;50.914;6.638;2023-05-31T10:36:09;4.97;;;2.10;;
28343;SDS011;15597;50.914;6.638;2023-05-31T10:38:40;6.10;;;2.10;;
28343;SDS011;15597;50.914;6.638;2023-05-31T10:41:15;4.93;;;2.20;;
28343;SDS011;15597;50.914;6.638;2023-05-31T10:43:46;5.07;;;1.98;;
28343;SDS011;15597;50.914;6.638;2023-05-31T10:46:19;5.47;;;1.83;;
28343;SDS011;15597;50.914;6.638;2023-05-31T10:48:59;4.63;;;1.95;;
28343;SDS011;15597;50.914;6.638;2023-05-31T10:51:37;4.20;;;2.00;;
28343;SDS011;15597;50.914;6.638;2023-05-31T10:54:20;5.07;;;2.20;;
28343;SDS011;15597;50.914;6.638;2023-05-31T10:56:56;5.07;;;2.13;;
28343;SDS011;15597;50.914;6.638;2023-05-31T10:59:23;5.55;;;1.67;;
28343;SDS011;15597;50.914;6.638;2023-05-31T11:04:23;4.95;;;1.77;;
28343;SDS011;15597;50.914;6.638;2023-05-31T11:06:54;3.92;;;1.90;;
28343;SDS011;15597;50.914;6.638;2023-05-31T11:09:20;4.95;;;1.80;;
28343;SDS011;15597;50.914;6.638;2023-05-31T11:11:59;4.90;;;2.05;;
28343;SDS011;15597;50.914;6.638;2023-05-31T11:14:25;5.85;;;2.00;;
28343;SDS011;15597;50.914;6.638;2023-05-31T11:19:37;4.28;;;1.95;;
28343;SDS011;15597;50.914;6.638;2023-05-31T11:22:07;3.42;;;1.60;;
28343;SDS011;15597;50.914;6.638;2023-05-31T11:27:11;5.90;;;1.75;;
28343;SDS011;15597;50.914;6.638;2023-05-31T11:32:21;4.78;;;1.67;;
28343;SDS011;15597;50.914;6.638;2023-05-31T11:35:14;4.00;;;1.75;;
28343;SDS011;15597;50.914;6.638;2023-05-31T11:37:41;3.88;;;1.70;;
28343;SDS011;15597;50.914;6.638;2023-05-31T11:40:08;4.45;;;2.00;;
28343;SDS011;15597;50.914;6.638;2023-05-31T11:42:37;5.35;;;1.98;;
28343;SDS011;15597;50.914;6.638;2023-05-31T11:45:05;5.78;;;1.80;;
28343;SDS011;15597;50.914;6.638;2023-05-31T11:47:33;4.60;;;1.65;;
28343;SDS011;15597;50.914;6.638;2023-05-31T11:50:21;4.65;;;1.52;;
28343;SDS011;15597;50.914;6.638;2023-05-31T11:52:49;3.30;;;1.70;;
28343;SDS011;15597;50.914;6.638;2023-05-31T11:55:15;4.97;;;1.80;;
28343;SDS011;15597;50.914;6.638;2023-05-31T11:57:43;5.50;;;1.45;;
28343;SDS011;15597;50.914;6.638;2023-05-31T12:00:10;4.07;;;1.50;;
28343;SDS011;15597;50.914;6.638;2023-05-31T12:02:40;3.95;;;1.63;;
28343;SDS011;15597;50.914;6.638;2023-05-31T12:05:14;4.03;;;1.95;;
28343;SDS011;15597;50.914;6.638;2023-05-31T12:07:45;3.85;;;1.73;;
28343;SDS011;15597;50.914;6.638;2023-05-31T12:10:11;5.55;;;1.75;;
28343;SDS011;15597;50.914;6.638;2023-05-31T12:12:38;5.43;;;1.83;;
28343;SDS011;15597;50.914;6.638;2023-05-31T12:15:05;4.88;;;1.67;;
28343;SDS011;15597;50.914;6.638;2023-05-31T12:17:31;3.38;;;1.60;;
28343;SDS011;15597;50.914;6.638;2023-05-31T12:19:57;4.20;;;1.60;;
28343;SDS011;15597;50.914;6.638;2023-05-31T12:22:23;3.28;;;1.30;;
28343;SDS011;15597;50.914;6.638;2023-05-31T12:24:52;4.47;;;1.42;;
28343;SDS011;15597;50.914;6.638;2023-05-31T12:27:20;5.18;;;1.70;;
28343;SDS011;15597;50.914;6.638;2023-05-31T12:29:47;5.78;;;1.50;;
28343;SDS011;15597;50.914;6.638;2023-05-31T12:32:12;5.90;;;1.73;;
28343;SDS011;15597;50.914;6.638;2023-05-31T12:34:38;7.15;;;1.85;;
28343;SDS011;15597;50.914;6.638;2023-05-31T12:37:05;4.55;;;1.88;;
28343;SDS011;15597;50.914;6.638;2023-05-31T12:39:32;6.07;;;1.83;;
28343;SDS011;15597;50.914;6.638;2023-05-31T12:41:59;5.28;;;1.90;;
28343;SDS011;15597;50.914;6.638;2023-05-31T12:44:26;3.72;;;1.67;;
28343;SDS011;15597;50.914;6.638;2023-05-31T12:46:58;3.55;;;1.58;;
28343;SDS011;15597;50.914;6.638;2023-05-31T12:49:26;6.03;;;1.75;;
28343;SDS011;15597;50.914;6.638;2023-05-31T12:54:25;5.03;;;2.05;;
28343;SDS011;15597;50.914;6.638;2023-05-31T12:56:52;6.75;;;1.60;;
28343;SDS011;15597;50.914;6.638;2023-05-31T12:59:18;7.32;;;2.05;;
28343;SDS011;15597;50.914;6.638;2023-05-31T13:01:44;3.90;;;1.52;;
28343;SDS011;15597;50.914;6.638;2023-05-31T13:04:10;3.72;;;1.50;;
28343;SDS011;15597;50.914;6.638;2023-05-31T13:06:40;4.40;;;1.70;;
28343;SDS011;15597;50.914;6.638;2023-05-31T13:09:06;7.40;;;1.90;;
28343;SDS011;15597;50.914;6.638;2023-05-31T13:11:32;6.93;;;1.90;;
28343;SDS011;15597;50.914;6.638;2023-05-31T13:14:02;3.92;;;1.77;;
28343;SDS011;15597;50.914;6.638;2023-05-31T13:16:29;4.50;;;1.77;;
28343;SDS011;15597;50.914;6.638;2023-05-31T13:18:55;4.60;;;1.63;;
28343;SDS011;15597;50.914;6.638;2023-05-31T13:21:22;6.00;;;1.92;;
28343;SDS011;15597;50.914;6.638;2023-05-31T13:23:48;9.20;;;1.95;;
28343;SDS011;15597;50.914;6.638;2023-05-31T13:26:13;3.47;;;1.52;;
28343;SDS011;15597;50.914;6.638;2023-05-31T13:28:39;10.93;;;2.10;;
28343;SDS011;15597;50.914;6.638;2023-05-31T13:31:04;5.35;;;1.92;;
28343;SDS011;15597;50.914;6.638;2023-05-31T13:33:31;4.47;;;1.90;;
28343;SDS011;15597;50.914;6.638;2023-05-31T13:35:57;6.07;;;1.80;;
28343;SDS011;15597;50.914;6.638;2023-05-31T13:38:23;3.95;;;1.70;;
28343;SDS011;15597;50.914;6.638;2023-05-31T13:40:49;5.80;;;1.88;;
28343;SDS011;15597;50.914;6.638;2023-05-31T13:43:18;3.95;;;1.67;;
28343;SDS011;15597;50.914;6.638;2023-05-31T13:45:45;6.93;;;1.98;;
28343;SDS011;15597;50.914;6.638;2023-05-31T13:48:11;5.03;;;1.88;;
28343;SDS011;15597;50.914;6.638;2023-05-31T13:50:41;6.25;;;2.22;;
28343;SDS011;15597;50.914;6.638;2023-05-31T13:53:07;6.90;;;2.10;;
28343;SDS011;15597;50.914;6.638;2023-05-31T13:55:36;4.88;;;2.00;;
28343;SDS011;15597;50.914;6.638;2023-05-31T13:58:03;7.75;;;1.95;;
28343;SDS011;15597;50.914;6.638;2023-05-31T14:00:30;5.55;;;1.95;;
28343;SDS011;15597;50.914;6.638;2023-05-31T14:05:21;5.80;;;1.83;;
28343;SDS011;15597;50.914;6.638;2023-05-31T14:07:47;7.30;;;2.00;;
28343;SDS011;15597;50.914;6.638;2023-05-31T14:10:14;4.57;;;1.60;;
28343;SDS011;15597;50.914;6.638;2023-05-31T14:12:40;5.35;;;2.15;;
28343;SDS011;15597;50.914;6.638;2023-05-31T14:15:06;7.13;;;1.88;;
28343;SDS011;15597;50.914;6.638;2023-05-31T14:17:33;5.10;;;1.80;;
28343;SDS011;15597;50.914;6.638;2023-05-31T14:19:59;7.63;;;2.00;;
28343;SDS011;15597;50.914;6.638;2023-05-31T14:22:25;5.72;;;1.48;;
28343;SDS011;15597;50.914;6.638;2023-05-31T14:24:50;4.82;;;1.92;;
28343;SDS011;15597;50.914;6.638;2023-05-31T14:27:16;4.22;;;1.75;;
28343;SDS011;15597;50.914;6.638;2023-05-31T14:29:44;6.18;;;2.00;;
28343;SDS011;15597;50.914;6.638;2023-05-31T14:32:10;6.22;;;1.98;;
28343;SDS011;15597;50.914;6.638;2023-05-31T14:34:44;6.45;;;2.03;;
28343;SDS011;15597;50.914;6.638;2023-05-31T14:37:10;7.00;;;1.90;;
28343;SDS011;15597;50.914;6.638;2023-05-31T14:39:36;4.05;;;1.75;;
28343;SDS011;15597;50.914;6.638;2023-05-31T14:42:02;4.40;;;2.03;;
28343;SDS011;15597;50.914;6.638;2023-05-31T14:44:28;4.18;;;1.80;;
28343;SDS011;15597;50.914;6.638;2023-05-31T14:46:54;6.82;;;1.80;;
28343;SDS011;15597;50.914;6.638;2023-05-31T14:49:21;6.00;;;2.00;;
28343;SDS011;15597;50.914;6.638;2023-05-31T14:51:48;4.10;;;1.85;;
28343;SDS011;15597;50.914;6.638;2023-05-31T14:54:15;4.65;;;1.85;;
28343;SDS011;15597;50.914;6.638;2023-05-31T14:56:41;5.70;;;1.90;;
28343;SDS011;15597;50.914;6.638;2023-05-31T14:59:07;4.95;;;1.70;;
28343;SDS011;15597;50.914;6.638;2023-05-31T15:01:32;6.03;;;1.77;;
28343;SDS011;15597;50.914;6.638;2023-05-31T15:03:58;5.50;;;1.77;;
28343;SDS011;15597;50.914;6.638;2023-05-31T15:06:23;4.22;;;1.70;;
28343;SDS011;15597;50.914;6.638;2023-05-31T15:08:50;4.75;;;1.83;;
28343;SDS011;15597;50.914;6.638;2023-05-31T15:11:15;4.90;;;1.60;;
28343;SDS011;15597;50.914;6.638;2023-05-31T15:13:41;5.32;;;1.70;;
28343;SDS011;15597;50.914;6.638;2023-05-31T15:16:07;4.88;;;1.80;;
28343;SDS011;15597;50.914;6.638;2023-05-31T15:18:32;3.28;;;1.50;;
28343;SDS011;15597;50.914;6.638;2023-05-31T15:20:58;4.05;;;1.88;;
28343;SDS011;15597;50.914;6.638;2023-05-31T15:23:23;9.38;;;1.85;;